Tri Cities, Washington
Current Conditions -  °F | °C
As of 12:20 AM on Thursday 27 Nov 2014 (Local Time) from KPSC Reporting Station
Haze Haze  
Wind Chill: 40°   Ceiling: 200
Heat Index: 40°   Visibility: 3mi
Dew Point: 40°   Wind: 3mph
Humidity: 100%   Direction: 110°ESE
Pressure: 29.97"   Gusts: NA
Location:  46.2289°N, 119.099°W
Report Text: KPSC 270820Z AUTO 11003KT 3SM BR OVC002 04/04 A2997 RMK AO2 T00440044
Loading
Personal Weather Stations






























Interactive Weather Map New forecast layout! Learn more

10-Day Weather Forecast

Advertisements
Track Severe Weather on mobile